Time;durP1;ratioP1;P1;durP2;ratioP2;P2;SDS_P1;SDS_P2;PMS_P1;PMS_P2;Temp;Humidity;BMP_temperature;BMP_pressure;BME280_temperature;BME280_humidity;BME280_pressure;Samples;Min_cycle;Max_cycle;Signal;HPM_P1;HPM_P2
2021/01/16 00:02:01;;;;;;;9.00;4.45;;;-3275.00;78.80;;;;;;5027549;28;20064;-64
2021/01/16 00:04:26;;;;;;;8.43;3.75;;;-3275.00;78.90;;;;;;5042771;28;20124;-65
2021/01/16 00:06:53;;;;;;;8.05;4.38;;;-3275.00;79.30;;;;;;5042886;28;20364;-65
2021/01/16 00:09:19;;;;;;;7.35;3.72;;;-3275.00;79.60;;;;;;5047262;28;20030;-64
2021/01/16 00:11:46;;;;;;;7.93;4.50;;;-3275.00;78.60;;;;;;5042579;28;20489;-65
2021/01/16 00:14:12;;;;;;;6.45;3.58;;;-3275.00;79.50;;;;;;5042660;28;20139;-64
2021/01/16 00:16:37;;;;;;;5.63;3.53;;;-3275.00;79.50;;;;;;5047105;28;20028;-66
2021/01/16 00:19:03;;;;;;;7.35;3.50;;;-3275.00;78.80;;;;;;5063689;28;20458;-65
2021/01/16 00:21:28;;;;;;;6.10;3.42;;;-3275.00;78.30;;;;;;5062256;28;20051;-65
2021/01/16 00:23:54;;;;;;;6.25;3.63;;;-3274.90;78.40;;;;;;5061809;28;20033;-65
2021/01/16 00:26:19;;;;;;;7.80;4.32;;;-3274.90;79.20;;;;;;5064052;28;20239;-65
2021/01/16 00:28:45;;;;;;;6.60;3.92;;;-3275.00;78.30;;;;;;5058381;28;20082;-65
2021/01/16 00:31:11;;;;;;;6.90;4.07;;;-3275.00;79.60;;;;;;5058365;28;20028;-65
2021/01/16 00:33:36;;;;;;;6.82;3.70;;;-3275.00;78.20;;;;;;5063472;28;20116;-65
2021/01/16 00:36:04;;;;;;;6.68;3.45;;;-3275.00;79.10;;;;;;5046518;28;20055;-65
2021/01/16 00:38:36;;;;;;;6.78;3.90;;;-3275.00;78.00;;;;;;5073384;22;20044;-66
2021/01/16 00:41:02;;;;;;;6.38;3.72;;;-3274.90;78.50;;;;;;5048088;28;20071;-66
2021/01/16 00:43:27;;;;;;;7.70;4.07;;;-3275.00;79.40;;;;;;5046125;28;20032;-66
2021/01/16 00:45:53;;;;;;;9.98;4.30;;;-3275.00;78.80;;;;;;5043299;28;20021;-66
2021/01/16 00:48:20;;;;;;;7.18;3.83;;;-3274.90;78.30;;;;;;5045555;28;20021;-66
2021/01/16 00:50:47;;;;;;;7.47;4.35;;;-3275.00;79.40;;;;;;5048905;28;20029;-66
2021/01/16 00:53:13;;;;;;;7.53;4.57;;;-3275.00;79.00;;;;;;5050703;28;20039;-65
2021/01/16 00:55:39;;;;;;;9.40;4.60;;;-3275.00;78.90;;;;;;5051625;28;20021;-64
2021/01/16 00:58:14;;;;;;;8.65;4.22;;;-3275.00;79.20;;;;;;5048921;28;20127;-66
2021/01/16 01:00:45;;;;;;;7.50;4.40;;;-3275.00;78.80;;;;;;5051019;28;20071;-65
2021/01/16 01:03:18;;;;;;;9.77;4.35;;;-3274.90;79.10;;;;;;5038955;28;20451;-65
2021/01/16 01:05:44;;;;;;;10.02;5.00;;;-3275.00;79.60;;;;;;5041862;28;20029;-65
2021/01/16 01:08:10;;;;;;;10.13;5.00;;;-3275.00;79.90;;;;;;5050219;28;20539;-64
2021/01/16 01:10:54;;;;;;;7.47;4.75;;;-3275.00;79.30;;;;;;5049279;28;20436;-66
2021/01/16 01:13:20;;;;;;;6.57;4.70;;;-3275.00;79.90;;;;;;5049409;28;20028;-66
2021/01/16 01:15:45;;;;;;;6.72;4.28;;;-3275.00;79.60;;;;;;5051602;28;20388;-65
2021/01/16 01:18:11;;;;;;;7.95;4.95;;;-3274.90;79.40;;;;;;5047527;28;20064;-65
2021/01/16 01:20:36;;;;;;;7.70;4.43;;;-3275.00;79.40;;;;;;5052093;28;20353;-66
2021/01/16 01:23:02;;;;;;;9.85;5.00;;;-3275.00;79.40;;;;;;5045679;28;20134;-65
2021/01/16 01:25:28;;;;;;;9.25;4.68;;;-3274.90;79.40;;;;;;5051482;28;20017;-66
2021/01/16 01:27:57;;;;;;;7.82;4.68;;;-3275.00;79.70;;;;;;5050434;28;20095;-65
2021/01/16 01:30:26;;;;;;;8.57;5.20;;;-3275.00;79.20;;;;;;5032304;28;20086;-66
2021/01/16 01:32:52;;;;;;;8.10;5.32;;;-3275.00;78.70;;;;;;5046703;28;20037;-66
2021/01/16 01:35:18;;;;;;;9.00;5.07;;;-3274.90;78.30;;;;;;5044988;28;21399;-66
2021/01/16 01:37:50;;;;;;;10.93;5.38;;;-3274.90;77.40;;;;;;5037049;28;20090;-66
2021/01/16 01:40:17;;;;;;;7.93;4.63;;;-3274.90;76.70;;;;;;5037736;28;20041;-66
2021/01/16 01:42:46;;;;;;;7.53;4.78;;;-3274.80;76.20;;;;;;5047780;28;20112;-66
2021/01/16 01:45:12;;;;;;;7.43;4.97;;;-3274.90;75.40;;;;;;5064323;28;20417;-66
2021/01/16 01:47:39;;;;;;;9.50;4.82;;;-3274.90;75.40;;;;;;5050686;28;20021;-66
2021/01/16 01:50:07;;;;;;;9.88;5.57;;;-3274.80;75.40;;;;;;5050629;28;20035;-66
2021/01/16 01:52:37;;;;;;;12.15;5.88;;;-3274.90;76.80;;;;;;5050743;28;20033;-66
2021/01/16 01:55:04;;;;;;;8.10;5.05;;;-3274.90;77.30;;;;;;5050060;28;20456;-66
2021/01/16 01:57:33;;;;;;;10.18;5.25;;;-3274.80;76.70;;;;;;5046970;28;20504;-66
2021/01/16 02:00:03;;;;;;;10.32;5.97;;;-3274.80;77.20;;;;;;5049611;28;20037;-66
2021/01/16 02:02:33;;;;;;;8.52;5.03;;;-3274.90;77.70;;;;;;5049996;28;20032;-66
2021/01/16 02:05:00;;;;;;;8.27;5.25;;;-3274.90;77.60;;;;;;5050350;28;20037;-66
2021/01/16 02:07:29;;;;;;;9.80;5.93;;;-3274.80;77.90;;;;;;5049316;28;20032;-66
2021/01/16 02:09:55;;;;;;;13.27;5.65;;;-3274.80;77.70;;;;;;5049352;28;20037;-66
2021/01/16 02:12:22;;;;;;;9.85;5.68;;;-3274.90;78.30;;;;;;5050667;28;20037;-66
2021/01/16 02:15:20;;;;;;;8.98;5.53;;;-3274.80;78.30;;;;;;5048740;28;20108;-66
2021/01/16 02:17:50;;;;;;;9.43;5.68;;;-3274.80;78.30;;;;;;5049784;28;20036;-66
2021/01/16 02:20:25;;;;;;;10.73;5.80;;;-3274.80;77.80;;;;;;5039477;28;20029;-66
2021/01/16 02:23:17;;;;;;;8.95;5.15;;;-3274.80;78.90;;;;;;5047509;28;20043;-66
2021/01/16 02:25:42;;;;;;;8.57;4.97;;;-3274.80;79.10;;;;;;5035576;28;20021;-65
2021/01/16 02:28:30;;;;;;;9.65;5.22;;;-3274.80;79.10;;;;;;5036623;28;20037;-64
2021/01/16 02:30:56;;;;;;;9.73;5.50;;;-3274.70;78.60;;;;;;5032050;28;20127;-66
2021/01/16 02:33:25;;;;;;;15.43;5.22;;;-3274.80;78.40;;;;;;5046079;28;20523;-66
2021/01/16 02:36:09;;;;;;;11.35;5.28;;;-3274.70;78.70;;;;;;5050828;28;20504;-65
2021/01/16 02:38:55;;;;;;;9.98;4.85;;;-3274.80;79.00;;;;;;5048757;28;20048;-66
2021/01/16 02:41:53;;;;;;;9.02;5.15;;;-3274.80;78.20;;;;;;5049806;28;20037;-66
2021/01/16 02:44:21;;;;;;;12.18;5.75;;;-3274.80;78.30;;;;;;5045830;28;20016;-66
2021/01/16 02:46:55;;;;;;;7.95;4.93;;;-3274.80;78.40;;;;;;5049865;28;20036;-66
2021/01/16 02:49:58;;;;;;;8.68;5.05;;;-3274.80;78.40;;;;;;5049355;28;20025;-66
2021/01/16 02:52:27;;;;;;;9.32;5.05;;;-3274.70;77.90;;;;;;5044512;28;20033;-66
2021/01/16 02:54:55;;;;;;;10.48;4.82;;;-3274.70;78.60;;;;;;5048956;28;20374;-66
2021/01/16 02:57:21;;;;;;;13.50;6.18;;;-3274.70;78.80;;;;;;5049871;28;20171;-66
2021/01/16 02:59:47;;;;;;;12.73;6.10;;;-3274.80;80.10;;;;;;5048141;28;20111;-66
2021/01/16 03:02:15;;;;;;;8.57;4.85;;;-3274.80;79.90;;;;;;5044965;28;20505;-66
2021/01/16 03:04:41;;;;;;;12.40;5.78;;;-3274.80;78.70;;;;;;5040594;28;20085;-65
2021/01/16 03:07:09;;;;;;;9.50;5.38;;;-3274.80;79.30;;;;;;5048381;28;20037;-66
2021/01/16 03:09:36;;;;;;;10.65;6.15;;;-3274.80;79.20;;;;;;5047195;28;20500;-66
2021/01/16 03:12:02;;;;;;;11.50;5.53;;;-3274.70;78.60;;;;;;5049566;28;20065;-66
2021/01/16 03:14:34;;;;;;;10.13;5.80;;;-3274.70;78.70;;;;;;5048118;28;20171;-66
2021/01/16 03:17:09;;;;;;;10.10;5.63;;;-3274.70;79.00;;;;;;5046428;28;20024;-66
2021/01/16 03:19:38;;;;;;;10.25;5.55;;;-3274.70;78.80;;;;;;5048448;28;20032;-66
2021/01/16 03:22:16;;;;;;;9.65;5.85;;;-3274.70;78.80;;;;;;5049590;28;20037;-66
2021/01/16 03:24:42;;;;;;;10.00;5.20;;;-3274.70;79.10;;;;;;5042668;28;20246;-66
2021/01/16 03:27:08;;;;;;;9.00;5.68;;;-3274.70;78.80;;;;;;5047603;28;20040;-66
2021/01/16 03:29:34;;;;;;;12.18;5.90;;;-3274.70;79.20;;;;;;5048093;28;20032;-66
2021/01/16 03:31:59;;;;;;;14.05;5.78;;;-3274.70;79.60;;;;;;5049421;28;20029;-66
2021/01/16 03:34:25;;;;;;;8.77;5.30;;;-3274.70;79.70;;;;;;5048392;28;20029;-66
2021/01/16 03:36:50;;;;;;;9.10;5.75;;;-3274.70;79.10;;;;;;5047007;28;20029;-65
2021/01/16 03:39:16;;;;;;;11.55;6.03;;;-3274.70;78.90;;;;;;5035651;28;20120;-66
2021/01/16 03:41:42;;;;;;;12.43;5.88;;;-3274.70;79.60;;;;;;5034844;28;20025;-66
2021/01/16 03:44:07;;;;;;;12.50;6.00;;;-3274.70;79.40;;;;;;5047724;28;20033;-66
2021/01/16 03:46:33;;;;;;;9.48;5.57;;;-3274.70;79.60;;;;;;5047924;28;20044;-66
2021/01/16 03:48:58;;;;;;;10.55;5.82;;;-3274.70;79.40;;;;;;5026965;28;20037;-66
2021/01/16 03:51:24;;;;;;;9.75;5.90;;;-3274.70;79.50;;;;;;5021548;28;20028;-66
2021/01/16 03:53:49;;;;;;;10.52;6.20;;;-3274.70;79.80;;;;;;5047810;28;20107;-66
2021/01/16 03:56:15;;;;;;;10.27;6.35;;;-3274.70;79.60;;;;;;5045560;28;20393;-66
2021/01/16 03:58:41;;;;;;;9.60;5.88;;;-3274.60;80.10;;;;;;5046690;28;20116;-66
2021/01/16 04:01:06;;;;;;;11.07;5.60;;;-3274.70;80.20;;;;;;5047903;28;20045;-66
2021/01/16 04:03:32;;;;;;;9.77;5.75;;;-3274.60;80.30;;;;;;5045012;28;20104;-66
2021/01/16 04:05:57;;;;;;;11.05;5.88;;;-3274.60;80.00;;;;;;5049008;28;20059;-66
2021/01/16 04:08:23;;;;;;;10.30;6.05;;;-3274.70;80.30;;;;;;5047985;28;20021;-65
2021/01/16 04:10:48;;;;;;;11.02;6.00;;;-3274.60;79.90;;;;;;5048381;28;20018;-66
2021/01/16 04:13:14;;;;;;;10.25;5.88;;;-3274.60;80.30;;;;;;5047450;28;20033;-65
2021/01/16 04:15:39;;;;;;;11.05;5.93;;;-3274.60;80.40;;;;;;5048074;28;20048;-66
2021/01/16 04:18:05;;;;;;;12.35;6.28;;;-3274.60;80.10;;;;;;5049217;28;20029;-66
2021/01/16 04:20:31;;;;;;;11.32;5.95;;;-3274.60;80.50;;;;;;5047487;28;20121;-66
2021/01/16 04:22:56;;;;;;;9.13;5.45;;;-3274.60;80.50;;;;;;5044807;28;20041;-66
2021/01/16 04:25:22;;;;;;;9.75;5.53;;;-3274.60;80.80;;;;;;5041931;28;20575;-66
2021/01/16 04:27:47;;;;;;;8.35;5.30;;;-3274.60;81.20;;;;;;5043472;28;20025;-66
2021/01/16 04:30:13;;;;;;;11.05;5.95;;;-3274.60;81.50;;;;;;5051141;28;20389;-66
2021/01/16 04:32:39;;;;;;;8.45;5.47;;;-3274.60;81.40;;;;;;5050174;28;20056;-66
2021/01/16 04:35:05;;;;;;;11.45;6.07;;;-3274.60;81.10;;;;;;5051774;28;20029;-66
2021/01/16 04:37:31;;;;;;;10.20;5.80;;;-3274.60;81.60;;;;;;5051362;28;20033;-66
2021/01/16 04:39:56;;;;;;;10.40;6.18;;;-3274.60;81.50;;;;;;5050314;28;20037;-66
2021/01/16 04:42:22;;;;;;;11.52;5.85;;;-3274.60;82.00;;;;;;5050493;28;20025;-66
2021/01/16 04:44:48;;;;;;;10.27;5.63;;;-3274.60;81.80;;;;;;5050993;28;20025;-66
2021/01/16 04:47:26;;;;;;;8.75;5.90;;;-3274.60;81.80;;;;;;5051124;28;20063;-65
2021/01/16 04:49:52;;;;;;;10.80;6.38;;;-3274.60;81.30;;;;;;5050639;28;20029;-66
2021/01/16 04:52:24;;;;;;;10.60;6.00;;;-3274.60;81.40;;;;;;5052541;28;20028;-65
2021/01/16 04:54:53;;;;;;;10.05;5.40;;;-3274.60;81.60;;;;;;5049623;28;20029;-66
2021/01/16 04:57:19;;;;;;;9.40;5.78;;;-3274.60;81.90;;;;;;5048804;28;20415;-65
2021/01/16 04:59:45;;;;;;;9.93;6.22;;;-3274.60;81.70;;;;;;5050593;28;20025;-66
2021/01/16 05:02:14;;;;;;;9.20;5.22;;;-3274.60;81.90;;;;;;5045153;28;20029;-66
2021/01/16 05:04:40;;;;;;;10.48;6.03;;;-3274.60;81.90;;;;;;5039250;28;20021;-66
2021/01/16 05:07:09;;;;;;;11.15;5.90;;;-3274.60;81.90;;;;;;5032004;28;20037;-66
2021/01/16 05:09:39;;;;;;;10.75;5.63;;;-3274.60;81.80;;;;;;5042538;28;20099;-66
2021/01/16 05:12:26;;;;;;;8.90;5.33;;;-3274.60;82.20;;;;;;5051397;28;20068;-66
2021/01/16 05:15:21;;;;;;;10.40;5.82;;;-3274.60;82.10;;;;;;5046054;28;20103;-66
2021/01/16 05:17:54;;;;;;;8.65;4.90;;;-3274.60;81.80;;;;;;5050322;28;20025;-65
2021/01/16 05:20:21;;;;;;;8.07;5.03;;;-3274.60;81.70;;;;;;5050345;28;20035;-66
2021/01/16 05:22:46;;;;;;;10.73;5.75;;;-3274.60;82.00;;;;;;5051690;28;20408;-65
2021/01/16 05:25:12;;;;;;;8.75;5.20;;;-3274.60;82.30;;;;;;5047797;28;20029;-64
2021/01/16 05:27:38;;;;;;;9.10;5.30;;;-3274.60;82.00;;;;;;5051677;28;20025;-66
2021/01/16 05:30:06;;;;;;;10.13;5.78;;;-3274.60;81.40;;;;;;5050019;28;20035;-65
2021/01/16 05:32:32;;;;;;;9.27;5.80;;;-3274.60;82.10;;;;;;5050880;28;20055;-65
2021/01/16 05:35:19;;;;;;;11.77;5.22;;;-3274.60;82.00;;;;;;5050025;28;20029;-65
2021/01/16 05:37:47;;;;;;;10.07;5.57;;;-3274.60;82.20;;;;;;5039713;28;20048;-66
2021/01/16 05:40:14;;;;;;;10.77;5.93;;;-3274.60;82.40;;;;;;5048706;28;20053;-66
2021/01/16 05:42:40;;;;;;;9.98;5.60;;;-3274.60;82.40;;;;;;5051359;28;20512;-66
2021/01/16 05:45:11;;;;;;;10.23;5.45;;;-3274.60;82.50;;;;;;5049679;28;20057;-66
2021/01/16 05:47:41;;;;;;;10.48;5.15;;;-3274.60;82.30;;;;;;5046527;28;20021;-66
2021/01/16 05:50:10;;;;;;;9.38;5.22;;;-3274.60;82.70;;;;;;5050068;28;20087;-66
2021/01/16 05:52:40;;;;;;;10.23;5.47;;;-3274.60;82.90;;;;;;5051034;28;20125;-66
2021/01/16 05:55:07;;;;;;;9.18;5.50;;;-3274.60;82.80;;;;;;5048238;28;20025;-65
2021/01/16 05:57:33;;;;;;;9.38;5.68;;;-3274.60;82.70;;;;;;5048019;28;20033;-66
2021/01/16 06:00:00;;;;;;;11.95;5.72;;;-3274.60;82.70;;;;;;5042653;28;20029;-65
2021/01/16 06:02:32;;;;;;;9.88;5.60;;;-3274.60;83.50;;;;;;5048946;28;20037;-65
2021/01/16 06:04:58;;;;;;;10.80;5.93;;;-3274.50;83.50;;;;;;5046907;28;20029;-65
2021/01/16 06:07:26;;;;;;;9.90;5.35;;;-3274.50;82.90;;;;;;5050431;28;20440;-65
2021/01/16 06:09:53;;;;;;;10.52;6.03;;;-3274.40;83.30;;;;;;5048610;28;20442;-66
2021/01/16 06:12:20;;;;;;;9.40;5.72;;;-3274.40;83.60;;;;;;5050803;28;20028;-66
2021/01/16 06:14:47;;;;;;;13.25;5.75;;;-3274.30;84.00;;;;;;5044479;28;20025;-65
2021/01/16 06:17:14;;;;;;;10.48;5.72;;;-3274.10;84.70;;;;;;5048828;28;20047;-65
2021/01/16 06:19:50;;;;;;;10.25;5.55;;;-3274.00;84.70;;;;;;5046158;28;20036;-65
2021/01/16 06:22:17;;;;;;;10.45;6.10;;;-3273.80;85.60;;;;;;5049727;28;20063;-65
2021/01/16 06:24:48;;;;;;;9.95;5.28;;;-3273.70;86.00;;;;;;5047688;28;20043;-65
2021/01/16 06:27:22;;;;;;;10.70;6.00;;;-3273.50;86.00;;;;;;5037368;28;20055;-65
2021/01/16 06:29:58;;;;;;;10.45;5.47;;;-3273.40;85.80;;;;;;5048745;28;20025;-66
2021/01/16 06:32:25;;;;;;;10.20;5.82;;;-3273.30;86.40;;;;;;5048520;28;20035;-66
2021/01/16 06:35:11;;;;;;;11.18;6.05;;;-3273.20;86.70;;;;;;5049391;28;20067;-66
2021/01/16 06:37:42;;;;;;;11.00;6.07;;;-3273.20;86.80;;;;;;5047883;28;20115;-66
2021/01/16 06:40:08;;;;;;;11.60;6.38;;;-3273.20;87.10;;;;;;5091340;22;20628;-65
2021/01/16 06:42:37;;;;;;;11.93;6.53;;;-3273.10;87.10;;;;;;5068790;28;20405;-67
2021/01/16 06:45:09;;;;;;;10.80;5.78;;;-3273.00;87.40;;;;;;5062574;28;20084;-64
2021/01/16 06:47:37;;;;;;;11.45;6.07;;;-3272.90;88.00;;;;;;5058662;28;20036;-65
2021/01/16 06:50:05;;;;;;;11.25;6.30;;;-3272.80;88.00;;;;;;5061036;28;20037;-65
2021/01/16 06:52:35;;;;;;;12.75;7.57;;;-3272.70;88.00;;;;;;5049778;28;20409;-65
2021/01/16 06:55:03;;;;;;;15.55;8.75;;;-3272.60;88.50;;;;;;5047689;28;20374;-67
2021/01/16 06:57:31;;;;;;;14.43;8.63;;;-3272.60;88.90;;;;;;5048995;28;20095;-66
2021/01/16 06:59:59;;;;;;;16.65;8.93;;;-3272.60;89.00;;;;;;5027515;28;20100;-65
2021/01/16 07:02:32;;;;;;;13.50;7.90;;;-3272.60;89.40;;;;;;5032888;28;20028;-65
2021/01/16 07:05:00;;;;;;;16.50;8.65;;;-3272.40;89.20;;;;;;5053118;28;20021;-65
2021/01/16 07:07:30;;;;;;;12.93;6.72;;;-3272.40;89.30;;;;;;5012338;28;20096;-65
2021/01/16 07:10:00;;;;;;;10.82;6.32;;;-3272.30;89.20;;;;;;5035329;28;20151;-65
2021/01/16 07:12:26;;;;;;;12.52;6.57;;;-3272.30;89.60;;;;;;5049292;28;20401;-66
2021/01/16 07:14:51;;;;;;;13.77;7.43;;;-3272.30;89.50;;;;;;5047252;28;20025;-65
2021/01/16 07:17:20;;;;;;;15.45;6.70;;;-3272.20;89.60;;;;;;5021913;28;20029;-66
2021/01/16 07:19:46;;;;;;;12.38;6.18;;;-3272.10;89.80;;;;;;5040156;28;20461;-66
2021/01/16 07:22:12;;;;;;;12.63;6.45;;;-3272.10;89.90;;;;;;5029206;28;20025;-65
2021/01/16 07:24:38;;;;;;;11.85;6.75;;;-3272.00;90.20;;;;;;5048006;28;20498;-65
2021/01/16 07:27:05;;;;;;;14.02;7.35;;;-3272.10;90.30;;;;;;5047335;28;20033;-65
2021/01/16 07:29:36;;;;;;;14.35;7.00;;;-3272.30;90.30;;;;;;5051881;28;20233;-65
2021/01/16 07:32:09;;;;;;;13.50;6.93;;;-3272.30;89.90;;;;;;5043415;28;20231;-65
2021/01/16 07:34:35;;;;;;;13.15;6.05;;;-3272.40;89.90;;;;;;5042851;28;20120;-65
2021/01/16 07:37:01;;;;;;;11.65;6.20;;;-3272.50;89.90;;;;;;5048941;28;20617;-66
2021/01/16 07:39:31;;;;;;;10.10;5.97;;;-3272.60;89.70;;;;;;5058687;28;20497;-66
2021/01/16 07:42:00;;;;;;;11.35;6.35;;;-3272.70;89.60;;;;;;5069263;28;20060;-65
2021/01/16 07:44:31;;;;;;;12.13;6.45;;;-3272.80;89.50;;;;;;5049986;28;20450;-65
2021/01/16 07:47:00;;;;;;;12.60;6.38;;;-3272.90;89.40;;;;;;5028976;28;20068;-65
2021/01/16 07:49:38;;;;;;;11.45;6.22;;;-3273.00;88.90;;;;;;5047259;28;20040;-65
2021/01/16 07:52:06;;;;;;;11.80;5.75;;;-3273.00;88.40;;;;;;5034560;28;20036;-65
2021/01/16 07:54:36;;;;;;;10.20;6.07;;;-3273.10;88.10;;;;;;5049110;28;20573;-65
2021/01/16 07:57:12;;;;;;;12.88;6.88;;;-3273.10;87.30;;;;;;5045460;28;20103;-65
2021/01/16 07:59:49;;;;;;;10.40;6.00;;;-3273.20;87.00;;;;;;5032085;28;20121;-66
2021/01/16 08:02:19;;;;;;;12.48;6.60;;;-3273.20;87.00;;;;;;5036959;28;20028;-65
2021/01/16 08:05:04;;;;;;;10.33;6.00;;;-3273.20;87.00;;;;;;5053385;28;20071;-65
2021/01/16 08:08:09;;;;;;;8.75;5.20;;;-3273.20;87.00;;;;;;5051215;28;20025;-65
2021/01/16 08:10:36;;;;;;;10.77;6.18;;;-3273.30;86.80;;;;;;5050813;28;20037;-65
2021/01/16 08:13:08;;;;;;;14.18;6.55;;;-3273.50;86.50;;;;;;5051329;28;20032;-66
2021/01/16 08:15:39;;;;;;;12.32;6.15;;;-3273.60;86.50;;;;;;5052903;28;20031;-66
2021/01/16 08:18:09;;;;;;;12.20;6.03;;;-3273.60;86.50;;;;;;5047916;28;20396;-66
2021/01/16 08:20:39;;;;;;;11.30;6.32;;;-3273.70;86.60;;;;;;5036014;28;20171;-67
2021/01/16 08:23:06;;;;;;;12.75;6.53;;;-3273.80;86.50;;;;;;5033644;28;20037;-65
2021/01/16 08:25:33;;;;;;;11.60;6.53;;;-3273.80;86.80;;;;;;5032420;28;20524;-66
2021/01/16 08:28:06;;;;;;;11.95;6.80;;;-3273.90;86.50;;;;;;5044616;28;20504;-66
2021/01/16 08:30:33;;;;;;;11.20;6.22;;;-3273.90;86.40;;;;;;5052371;28;20028;-65
2021/01/16 08:33:02;;;;;;;11.95;6.45;;;-3274.00;86.00;;;;;;5050863;28;20021;-65
2021/01/16 08:35:48;;;;;;;12.20;6.40;;;-3274.10;86.20;;;;;;5052773;28;20051;-65
2021/01/16 08:38:16;;;;;;;10.82;6.07;;;-3274.10;85.80;;;;;;5048725;28;20040;-66
2021/01/16 08:40:49;;;;;;;10.65;6.13;;;-3274.10;85.50;;;;;;5051903;28;20036;-65
2021/01/16 08:43:30;;;;;;;12.10;6.57;;;-3274.20;85.30;;;;;;5051256;28;20113;-68
2021/01/16 08:46:08;;;;;;;15.18;7.50;;;-3274.30;85.60;;;;;;5050562;28;20505;-65
2021/01/16 08:48:34;;;;;;;11.02;5.82;;;-3274.30;85.60;;;;;;5046698;28;20060;-66
2021/01/16 08:51:00;;;;;;;11.32;7.13;;;-3274.40;85.00;;;;;;5050972;28;20060;-65
2021/01/16 08:53:28;;;;;;;11.02;6.57;;;-3274.40;84.70;;;;;;5048748;28;20036;-65
2021/01/16 08:55:54;;;;;;;11.43;6.65;;;-3274.50;84.60;;;;;;5038441;28;20037;-66
2021/01/16 08:58:28;;;;;;;10.57;6.32;;;-3274.50;83.90;;;;;;5044504;28;20036;-65
2021/01/16 09:00:55;;;;;;;11.25;6.35;;;-3274.50;83.70;;;;;;5050835;28;20045;-66
2021/01/16 09:03:20;;;;;;;11.52;6.82;;;-3274.50;83.40;;;;;;5042125;28;20052;-66
2021/01/16 09:06:00;;;;;;;11.95;6.63;;;-3274.60;83.20;;;;;;5044427;28;20017;-66
2021/01/16 09:08:28;;;;;;;13.20;6.53;;;-3274.60;83.10;;;;;;5046749;28;20481;-66
2021/01/16 09:11:09;;;;;;;12.27;6.43;;;-3274.60;82.80;;;;;;5051041;28;20043;-66
2021/01/16 09:13:40;;;;;;;10.25;6.20;;;-3274.60;82.70;;;;;;5045969;28;20079;-66
2021/01/16 09:16:06;;;;;;;;;;;-3274.60;82.70;;;;;;5036701;28;20469;-66
2021/01/16 09:18:31;;;;;;;11.38;5.78;;;-3274.60;82.20;;;;;;5047967;28;19909;-67
2021/01/16 09:20:59;;;;;;;10.50;5.75;;;-3274.60;82.60;;;;;;5048791;28;20029;-66
2021/01/16 09:23:36;;;;;;;10.43;6.22;;;-3274.70;82.30;;;;;;5048251;28;20044;-67
2021/01/16 09:26:05;;;;;;;10.48;6.22;;;-3274.80;82.50;;;;;;5048026;28;20021;-67
2021/01/16 09:28:41;;;;;;;13.15;6.18;;;-3274.80;83.40;;;;;;5043486;28;20055;-66
2021/01/16 09:31:43;;;;;;;9.73;5.68;;;-3274.90;82.30;;;;;;5049798;28;20052;-66
2021/01/16 09:34:10;;;;;;;10.55;5.68;;;-3274.90;81.50;;;;;;5023015;28;20033;-66
2021/01/16 09:36:39;;;;;;;10.43;5.93;;;-3275.00;81.50;;;;;;5050458;28;20047;-67
2021/01/16 09:39:12;;;;;;;10.00;5.60;;;-3275.00;80.80;;;;;;5045695;28;20053;-66
2021/01/16 09:41:37;;;;;;;9.32;5.53;;;-3275.00;81.20;;;;;;5049452;28;20035;-66
2021/01/16 09:44:03;;;;;;;11.23;6.00;;;-3275.20;81.90;;;;;;5049840;28;20105;-66
2021/01/16 09:46:35;;;;;;;8.70;5.05;;;-3275.10;80.40;;;;;;5049610;28;20036;-67
2021/01/16 09:49:03;;;;;;;9.15;5.50;;;-3275.20;79.70;;;;;;5045762;28;20033;-67
2021/01/16 09:51:34;;;;;;;9.57;5.28;;;-3275.30;80.40;;;;;;5047790;28;20064;-67
2021/01/16 09:54:16;;;;;;;10.05;5.10;;;-3275.40;80.00;;;;;;5051447;28;20033;-66
2021/01/16 09:56:49;;;;;;;8.63;5.07;;;-3275.50;78.80;;;;;;5028992;28;20056;-67
2021/01/16 09:59:22;;;;;;;11.88;5.35;;;-3275.60;78.60;;;;;;5045920;28;20505;-66
2021/01/16 10:02:06;;;;;;;10.77;6.05;;;-3275.70;78.50;;;;;;5021188;28;20029;-68
2021/01/16 10:04:38;;;;;;;11.85;5.30;;;-3275.70;77.90;;;;;;5024870;28;20021;-67
2021/01/16 10:07:11;;;;;;;10.85;5.57;;;-3275.70;77.50;;;;;;5028311;28;20037;-67
2021/01/16 10:09:46;;;;;;;8.60;5.10;;;-3275.70;77.60;;;;;;5048229;28;20588;-66
2021/01/16 10:12:34;;;;;;;9.07;5.32;;;-3275.60;77.10;;;;;;5047780;28;20029;-67
2021/01/16 10:15:06;;;;;;;8.73;5.70;;;-3275.80;77.30;;;;;;5047292;28;20040;-66
2021/01/16 10:17:36;;;;;;;9.20;5.82;;;-3276.00;77.40;;;;;;5029011;28;20044;-67
2021/01/16 10:20:07;;;;;;;10.30;5.30;;;-3276.30;78.00;;;;;;5009428;28;20037;-67
2021/01/16 10:22:34;;;;;;;8.90;5.15;;;-3276.50;76.80;;;;;;5039817;28;20120;-67
2021/01/16 10:25:01;;;;;;;9.00;4.43;;;-3276.70;74.70;;;;;;5049142;28;20053;-68
2021/01/16 10:27:50;;;;;;;8.23;4.22;;;0.00;73.40;;;;;;5059320;28;20078;-68
2021/01/16 10:30:21;;;;;;;6.68;4.22;;;0.00;72.90;;;;;;5030476;28;20505;-68
2021/01/16 10:32:48;;;;;;;8.68;4.32;;;0.00;73.60;;;;;;5038543;28;20032;-68
2021/01/16 10:35:18;;;;;;;6.93;4.03;;;-3276.60;72.60;;;;;;5025997;28;20145;-68
2021/01/16 10:37:44;;;;;;;8.38;4.85;;;-3276.70;72.70;;;;;;5033189;28;20056;-67
2021/01/16 10:40:10;;;;;;;8.73;4.35;;;0.00;73.70;;;;;;5049140;28;20075;-68
2021/01/16 10:42:44;;;;;;;8.07;3.83;;;-3276.70;74.30;;;;;;5014679;28;20041;-68
2021/01/16 10:45:11;;;;;;;7.75;4.70;;;0.00;73.70;;;;;;5032813;28;20029;-67
2021/01/16 10:47:39;;;;;;;7.97;4.38;;;0.10;74.60;;;;;;5036427;28;20017;-67
2021/01/16 10:50:38;;;;;;;6.82;4.40;;;0.10;74.00;;;;;;5047047;28;20079;-67
2021/01/16 10:53:06;;;;;;;7.22;3.75;;;0.10;72.30;;;;;;5000074;28;20029;-67
2021/01/16 10:55:54;;;;;;;6.95;3.50;;;0.00;72.30;;;;;;5036213;28;20032;-67
2021/01/16 10:58:21;;;;;;;6.38;3.83;;;0.10;72.50;;;;;;5046593;28;20021;-67
2021/01/16 11:00:54;;;;;;;8.20;4.57;;;0.20;73.10;;;;;;5049523;28;20028;-67
2021/01/16 11:03:21;;;;;;;11.60;4.63;;;0.20;72.70;;;;;;5051674;28;20091;-67
2021/01/16 11:05:49;;;;;;;7.68;4.10;;;0.30;71.90;;;;;;5050063;28;20033;-67
2021/01/16 11:08:24;;;;;;;7.70;4.22;;;0.50;72.90;;;;;;5047383;28;20539;-68
2021/01/16 11:10:51;;;;;;;7.88;4.22;;;0.50;72.20;;;;;;5058375;28;20234;-67
2021/01/16 11:13:21;;;;;;;7.63;4.40;;;0.40;71.60;;;;;;5043489;28;20029;-68
2021/01/16 11:15:51;;;;;;;8.18;4.13;;;0.50;72.90;;;;;;5046648;28;20079;-67
2021/01/16 11:18:30;;;;;;;7.80;4.28;;;0.40;71.70;;;;;;5047529;28;20433;-66
2021/01/16 11:21:11;;;;;;;8.00;4.50;;;0.50;71.70;;;;;;5045654;28;20048;-66
2021/01/16 11:23:57;;;;;;;8.15;4.45;;;0.50;71.20;;;;;;5046159;28;20028;-67
2021/01/16 11:26:24;;;;;;;7.70;3.67;;;0.50;71.20;;;;;;5048085;28;20473;-68
2021/01/16 11:28:55;;;;;;;6.53;3.65;;;0.50;70.80;;;;;;5041337;28;20025;-69
2021/01/16 11:31:34;;;;;;;7.63;4.30;;;0.50;70.60;;;;;;5044875;28;20048;-68
2021/01/16 11:34:08;;;;;;;6.88;3.90;;;0.70;71.10;;;;;;5042134;28;20430;-69
2021/01/16 11:36:59;;;;;;;7.80;4.70;;;0.90;70.60;;;;;;5043921;28;20029;-69
2021/01/16 11:39:43;;;;;;;7.90;4.35;;;0.90;70.60;;;;;;5022001;28;20033;-69
2021/01/16 11:42:11;;;;;;;7.65;3.97;;;1.00;70.70;;;;;;5043517;28;20403;-67
2021/01/16 11:44:50;;;;;;;7.57;4.00;;;0.90;70.30;;;;;;5041767;28;20028;-69
2021/01/16 11:47:16;;;;;;;6.05;4.05;;;0.50;70.00;;;;;;5044307;28;20104;-69
2021/01/16 11:49:44;;;;;;;7.43;4.53;;;0.60;71.10;;;;;;5045584;28;20108;-69
2021/01/16 11:52:11;;;;;;;6.80;4.13;;;0.50;71.00;;;;;;5049821;28;20037;-69
2021/01/16 11:54:36;;;;;;;6.18;3.60;;;0.50;71.40;;;;;;5052330;28;20036;-69
2021/01/16 11:57:02;;;;;;;7.22;4.30;;;0.60;72.00;;;;;;5049134;28;20021;-69
2021/01/16 11:59:30;;;;;;;7.00;4.10;;;0.50;72.20;;;;;;5047124;28;20028;-69
2021/01/16 12:01:56;;;;;;;5.90;4.10;;;0.60;72.10;;;;;;5042891;28;20028;-69
2021/01/16 12:04:22;;;;;;;7.07;4.07;;;0.70;71.50;;;;;;5038387;28;20026;-69
2021/01/16 12:06:50;;;;;;;7.25;4.18;;;0.50;70.70;;;;;;5043063;28;20108;-69
2021/01/16 12:09:16;;;;;;;8.77;4.88;;;0.50;70.90;;;;;;5046883;28;20086;-69
2021/01/16 12:11:53;;;;;;;6.88;3.75;;;0.40;71.40;;;;;;5059928;28;20021;-68
2021/01/16 12:14:20;;;;;;;6.95;3.95;;;0.70;72.60;;;;;;5044320;28;20029;-66
2021/01/16 12:16:46;;;;;;;6.85;3.85;;;0.50;71.10;;;;;;5043762;28;20497;-69
2021/01/16 12:19:15;;;;;;;6.80;4.22;;;0.50;71.40;;;;;;5045775;28;20029;-68
2021/01/16 12:21:47;;;;;;;7.20;4.10;;;0.40;71.00;;;;;;5041302;28;20029;-69
2021/01/16 12:24:18;;;;;;;7.18;4.05;;;0.50;73.10;;;;;;5040982;28;20036;-69
2021/01/16 12:26:52;;;;;;;7.30;4.13;;;0.50;73.30;;;;;;5029845;28;20059;-69
2021/01/16 12:29:42;;;;;;;6.95;4.45;;;0.50;73.20;;;;;;5045040;28;20401;-69
2021/01/16 12:32:12;;;;;;;8.10;4.25;;;0.50;72.70;;;;;;5047869;28;20037;-69
2021/01/16 12:34:52;;;;;;;7.95;4.45;;;0.30;72.40;;;;;;5041538;28;20029;-69